Time;durP1;ratioP1;P1;durP2;ratioP2;P2;SDS_P1;SDS_P2;PMS_P1;PMS_P2;Temp;Humidity;BMP_temperature;BMP_pressure;BME280_temperature;BME280_humidity;BME280_pressure;Samples;Min_cycle;Max_cycle;Signal;HPM_P1;HPM_P2
2023/12/01 00:02:01;;;;;;;1.00;1.00;;;1.70;99.90;;;;;;5049121;28;20045;-66
2023/12/01 00:04:27;;;;;;;0.20;0.20;;;1.70;99.90;;;;;;5048299;28;20037;-66
2023/12/01 00:06:52;;;;;;;1.10;1.10;;;1.70;99.90;;;;;;5042787;28;20049;-66
2023/12/01 00:09:18;;;;;;;2.67;1.25;;;1.70;99.90;;;;;;5044204;28;20551;-66
2023/12/01 00:11:44;;;;;;;0.30;0.30;;;1.70;99.90;;;;;;5041021;28;20041;-65
2023/12/01 00:14:10;;;;;;;0.93;0.93;;;1.70;99.90;;;;;;5042530;28;20052;-66
2023/12/01 00:16:36;;;;;;;1.38;1.38;;;1.70;99.90;;;;;;5037637;28;20070;-66
2023/12/01 00:19:02;;;;;;;3.63;2.13;;;1.70;99.90;;;;;;5039503;28;20088;-66
2023/12/01 00:21:27;;;;;;;1.17;1.17;;;1.70;99.90;;;;;;5045026;28;20049;-66
2023/12/01 00:23:53;;;;;;;0.47;0.47;;;1.70;99.90;;;;;;5036432;28;20056;-66
2023/12/01 00:26:19;;;;;;;0.30;0.30;;;1.70;99.90;;;;;;5042014;28;20151;-66
2023/12/01 00:28:44;;;;;;;0.22;0.22;;;1.70;99.90;;;;;;5040108;28;20038;-65
2023/12/01 00:31:10;;;;;;;0.52;0.52;;;1.70;99.90;;;;;;5045733;28;20065;-66
2023/12/01 00:33:35;;;;;;;0.20;0.20;;;1.70;99.90;;;;;;5040359;28;20044;-66
2023/12/01 00:36:01;;;;;;;0.10;0.10;;;1.70;99.90;;;;;;5039854;28;20049;-66
2023/12/01 00:38:27;;;;;;;0.22;0.22;;;1.60;99.90;;;;;;5040803;28;20077;-65
2023/12/01 00:40:52;;;;;;;1.10;1.00;;;1.60;99.90;;;;;;5036731;28;20049;-66
2023/12/01 00:43:18;;;;;;;0.30;0.30;;;1.60;99.90;;;;;;5054429;28;20053;-65
2023/12/01 00:45:43;;;;;;;0.73;0.63;;;1.60;99.90;;;;;;5042019;28;20036;-66
2023/12/01 00:48:09;;;;;;;0.25;0.25;;;1.60;99.90;;;;;;5034998;28;20099;-66
2023/12/01 00:50:35;;;;;;;0.65;0.65;;;1.60;99.90;;;;;;5043709;28;20045;-66
2023/12/01 00:53:00;;;;;;;4.63;1.35;;;1.60;99.90;;;;;;5038718;28;20111;-66
2023/12/01 00:55:26;;;;;;;0.40;0.40;;;1.60;99.90;;;;;;5037031;28;20049;-66
2023/12/01 00:57:53;;;;;;;0.68;0.68;;;1.60;99.90;;;;;;5045979;28;20534;-66
2023/12/01 01:00:23;;;;;;;1.02;1.02;;;1.60;99.90;;;;;;5047677;28;20408;-66
2023/12/01 01:02:50;;;;;;;2.75;1.40;;;1.60;99.90;;;;;;5035739;28;20097;-66
2023/12/01 01:05:16;;;;;;;0.10;0.10;;;1.60;99.90;;;;;;5037944;28;20529;-66
2023/12/01 01:07:42;;;;;;;0.10;0.10;;;1.60;99.90;;;;;;5043062;28;20570;-66
2023/12/01 01:10:07;;;;;;;0.88;0.88;;;1.40;99.90;;;;;;5048788;28;20076;-66
2023/12/01 01:12:33;;;;;;;0.32;0.32;;;1.50;99.90;;;;;;5046695;28;20075;-66
2023/12/01 01:15:02;;;;;;;0.10;0.10;;;1.50;99.90;;;;;;5038737;28;20045;-66
2023/12/01 01:17:32;;;;;;;3.83;2.05;;;1.50;99.90;;;;;;5040993;28;20492;-66
2023/12/01 01:19:58;;;;;;;0.50;0.50;;;1.40;99.90;;;;;;5034322;28;20053;-66
2023/12/01 01:22:24;;;;;;;0.50;0.50;;;1.50;99.90;;;;;;5044359;28;20491;-65
2023/12/01 01:24:51;;;;;;;1.98;1.55;;;1.50;99.90;;;;;;5037603;28;20073;-66
2023/12/01 01:27:16;;;;;;;0.10;0.10;;;1.50;99.90;;;;;;5045608;28;20519;-66
2023/12/01 01:29:43;;;;;;;0.45;0.45;;;1.40;99.90;;;;;;5046915;28;20041;-66
2023/12/01 01:32:09;;;;;;;0.15;0.15;;;1.40;99.90;;;;;;5034377;28;20079;-66
2023/12/01 01:34:34;;;;;;;0.75;0.75;;;1.50;99.90;;;;;;5032171;28;20053;-66
2023/12/01 01:37:00;;;;;;;0.15;0.15;;;1.40;99.90;;;;;;5031856;28;20118;-65
2023/12/01 01:39:26;;;;;;;0.57;0.52;;;1.40;99.90;;;;;;5041223;28;20072;-66
2023/12/01 01:41:53;;;;;;;0.77;0.77;;;1.40;99.90;;;;;;5043239;28;20041;-66
2023/12/01 01:44:18;;;;;;;0.10;0.10;;;1.40;99.90;;;;;;5045076;28;20037;-66
2023/12/01 01:46:46;;;;;;;14.05;2.58;;;1.40;99.90;;;;;;5039178;28;20064;-66
2023/12/01 01:49:11;;;;;;;0.32;0.32;;;1.40;99.90;;;;;;5040555;28;20053;-66
2023/12/01 01:51:38;;;;;;;0.10;0.10;;;1.40;99.90;;;;;;5039445;28;20044;-66
2023/12/01 01:54:04;;;;;;;1.08;1.08;;;1.40;99.90;;;;;;5040640;28;20064;-66
2023/12/01 01:56:32;;;;;;;4.00;1.65;;;1.40;99.90;;;;;;5031135;28;20037;-66
2023/12/01 01:58:58;;;;;;;0.17;0.17;;;1.40;99.90;;;;;;5047132;28;20052;-66
2023/12/01 02:01:25;;;;;;;1.65;1.58;;;1.40;99.90;;;;;;5036285;28;20519;-66
2023/12/01 02:03:54;;;;;;;2.00;1.90;;;1.30;99.90;;;;;;5037195;28;20575;-66
2023/12/01 02:06:20;;;;;;;0.77;0.77;;;1.30;99.90;;;;;;5037838;28;20144;-66
2023/12/01 02:08:46;;;;;;;0.30;0.30;;;1.30;99.90;;;;;;5032608;28;20048;-66
2023/12/01 02:11:14;;;;;;;2.17;2.08;;;1.30;99.90;;;;;;5045314;28;20049;-66
2023/12/01 02:13:40;;;;;;;0.52;0.52;;;1.30;99.90;;;;;;5061931;28;20045;-66
2023/12/01 02:16:08;;;;;;;0.40;0.40;;;1.30;99.90;;;;;;5041333;28;20388;-66
2023/12/01 02:18:35;;;;;;;0.10;0.10;;;1.30;99.90;;;;;;5039854;28;20124;-65
2023/12/01 02:21:01;;;;;;;0.52;0.52;;;1.20;99.90;;;;;;5043810;28;20057;-66
2023/12/01 02:23:27;;;;;;;0.45;0.45;;;1.20;99.90;;;;;;5041966;28;20056;-66
2023/12/01 02:25:53;;;;;;;0.32;0.32;;;1.20;99.90;;;;;;5043641;28;20040;-66
2023/12/01 02:28:19;;;;;;;0.20;0.20;;;1.20;99.90;;;;;;5045152;28;20052;-66
2023/12/01 02:30:53;;;;;;;0.55;0.55;;;1.20;99.90;;;;;;5039176;28;20041;-65
2023/12/01 02:33:19;;;;;;;1.88;1.75;;;1.20;99.90;;;;;;5036032;28;20048;-66
2023/12/01 02:35:48;;;;;;;0.10;0.10;;;1.10;99.90;;;;;;5042955;28;20059;-65
2023/12/01 02:38:14;;;;;;;1.27;1.17;;;1.10;99.90;;;;;;5037739;28;20041;-65
2023/12/01 02:40:43;;;;;;;0.30;0.30;;;1.10;99.90;;;;;;5041046;28;20131;-66
2023/12/01 02:43:13;;;;;;;1.13;1.10;;;1.00;99.90;;;;;;5053079;28;20041;-66
2023/12/01 02:45:38;;;;;;;0.22;0.22;;;1.00;99.90;;;;;;5040806;28;20060;-65
2023/12/01 02:48:05;;;;;;;0.10;0.10;;;1.00;99.90;;;;;;5042762;28;20041;-65
2023/12/01 02:50:31;;;;;;;0.88;0.88;;;1.00;99.90;;;;;;5041049;28;20484;-65
2023/12/01 02:52:58;;;;;;;0.10;0.10;;;0.90;99.90;;;;;;5045194;28;20102;-65
2023/12/01 02:55:23;;;;;;;2.80;2.60;;;0.90;99.90;;;;;;5045446;28;20041;-66
2023/12/01 02:57:49;;;;;;;7.93;1.10;;;0.80;99.90;;;;;;5039980;28;20047;-65
2023/12/01 03:00:15;;;;;;;0.20;0.20;;;0.80;99.90;;;;;;5033052;28;20118;-66
2023/12/01 03:02:41;;;;;;;0.10;0.10;;;0.60;99.90;;;;;;5043420;28;20076;-65
2023/12/01 03:05:08;;;;;;;3.30;1.42;;;0.60;99.90;;;;;;5045520;28;20037;-65
2023/12/01 03:07:39;;;;;;;0.20;0.20;;;0.50;99.90;;;;;;5040599;28;20056;-65
2023/12/01 03:10:09;;;;;;;0.45;0.45;;;0.50;99.90;;;;;;5042481;28;20041;-65
2023/12/01 03:12:35;;;;;;;0.20;0.20;;;0.50;99.90;;;;;;5040364;28;20044;-65
2023/12/01 03:15:01;;;;;;;1.00;0.73;;;0.50;99.90;;;;;;5038042;28;20042;-65
2023/12/01 03:17:27;;;;;;;0.50;0.50;;;0.40;99.90;;;;;;5034660;28;20056;-65
2023/12/01 03:19:53;;;;;;;1.05;1.05;;;0.40;99.90;;;;;;5043796;28;20053;-65
2023/12/01 03:22:19;;;;;;;0.40;0.40;;;0.40;99.90;;;;;;5046318;28;20052;-65
2023/12/01 03:24:47;;;;;;;0.52;0.52;;;0.30;99.90;;;;;;5041009;28;20049;-65
2023/12/01 03:27:14;;;;;;;0.20;0.20;;;0.30;99.90;;;;;;5034205;28;20370;-65
2023/12/01 03:29:40;;;;;;;1.33;1.20;;;0.30;99.90;;;;;;5039550;28;20045;-65
2023/12/01 03:32:06;;;;;;;1.30;1.02;;;0.30;99.90;;;;;;5048169;28;20051;-65
2023/12/01 03:34:31;;;;;;;0.20;0.20;;;0.30;99.90;;;;;;5042646;28;20530;-65
2023/12/01 03:36:57;;;;;;;0.55;0.55;;;0.30;99.90;;;;;;5047621;28;20105;-65
2023/12/01 03:39:22;;;;;;;0.85;0.85;;;0.30;99.90;;;;;;5049242;28;20044;-65
2023/12/01 03:41:48;;;;;;;2.00;1.85;;;0.30;99.90;;;;;;5047092;28;20098;-65
2023/12/01 03:44:14;;;;;;;0.43;0.43;;;0.20;99.90;;;;;;5045898;28;20048;-65
2023/12/01 03:46:40;;;;;;;3.72;1.85;;;0.30;99.90;;;;;;5048572;28;20103;-65
2023/12/01 03:49:06;;;;;;;3.15;2.38;;;0.20;99.90;;;;;;5049627;28;20527;-65
2023/12/01 03:51:31;;;;;;;0.28;0.28;;;0.20;99.90;;;;;;5048263;28;20037;-65
2023/12/01 03:53:57;;;;;;;1.40;1.33;;;0.20;99.90;;;;;;5053211;28;20098;-65
2023/12/01 03:56:23;;;;;;;4.40;1.08;;;0.30;99.90;;;;;;5047773;28;20037;-65
2023/12/01 03:58:54;;;;;;;0.77;0.77;;;0.20;99.90;;;;;;5044560;28;20041;-65
2023/12/01 04:01:20;;;;;;;1.00;1.00;;;0.20;99.90;;;;;;5046421;28;20057;-65
2023/12/01 04:03:45;;;;;;;0.73;0.73;;;0.20;99.90;;;;;;5040721;28;20068;-65
2023/12/01 04:06:11;;;;;;;2.35;1.23;;;0.20;99.90;;;;;;5034058;28;20393;-65
2023/12/01 04:08:37;;;;;;;0.32;0.32;;;0.20;99.90;;;;;;5042464;28;20048;-65
2023/12/01 04:11:03;;;;;;;0.47;0.47;;;0.20;99.90;;;;;;5042885;28;20047;-65
2023/12/01 04:13:28;;;;;;;2.25;1.95;;;0.10;99.90;;;;;;5048284;28;20079;-65
2023/12/01 04:15:54;;;;;;;1.20;1.20;;;0.10;99.90;;;;;;5040077;28;20405;-65
2023/12/01 04:18:19;;;;;;;0.50;0.50;;;0.10;99.90;;;;;;5041910;28;20392;-65
2023/12/01 04:20:45;;;;;;;0.22;0.22;;;0.00;99.90;;;;;;5044190;28;20053;-65
2023/12/01 04:23:11;;;;;;;0.40;0.40;;;0.10;99.90;;;;;;5036572;28;20033;-65
2023/12/01 04:25:40;;;;;;;1.58;1.55;;;0.10;99.90;;;;;;5033666;28;20045;-65
2023/12/01 04:28:06;;;;;;;0.10;0.10;;;0.10;99.90;;;;;;5040432;28;20045;-65
2023/12/01 04:30:33;;;;;;;0.57;0.57;;;0.00;99.90;;;;;;5035924;28;20047;-65
2023/12/01 04:33:02;;;;;;;1.88;1.83;;;-0.10;99.90;;;;;;5043926;28;20049;-65
2023/12/01 04:35:30;;;;;;;4.57;2.38;;;-0.10;99.90;;;;;;5036738;28;20392;-65
2023/12/01 04:37:57;;;;;;;0.68;0.68;;;-0.10;99.90;;;;;;5037469;28;20053;-65
2023/12/01 04:40:24;;;;;;;1.50;1.42;;;0.00;99.90;;;;;;5046440;28;20404;-65
2023/12/01 04:42:57;;;;;;;0.35;0.35;;;-0.10;99.90;;;;;;5042106;28;20053;-65
2023/12/01 04:45:25;;;;;;;1.10;0.85;;;-0.10;99.90;;;;;;5037610;28;20048;-65
2023/12/01 04:47:52;;;;;;;0.10;0.10;;;-0.10;99.90;;;;;;5044029;28;20507;-65
2023/12/01 04:50:25;;;;;;;2.65;2.28;;;-0.10;99.90;;;;;;5037547;28;20857;-65
2023/12/01 04:52:53;;;;;;;0.20;0.20;;;-0.10;99.90;;;;;;5036657;28;20041;-65
2023/12/01 04:55:20;;;;;;;0.47;0.47;;;-0.20;99.90;;;;;;5045200;28;20052;-65
2023/12/01 04:57:46;;;;;;;1.25;0.70;;;-0.20;99.90;;;;;;5037675;28;20045;-65
2023/12/01 05:00:25;;;;;;;0.10;0.10;;;-0.30;99.90;;;;;;5004082;28;1040960;-68
2023/12/01 05:02:54;;;;;;;0.10;0.10;;;-0.30;99.90;;;;;;5040606;28;20049;-65
2023/12/01 05:05:23;;;;;;;0.10;0.10;;;-0.20;99.90;;;;;;5042531;28;20071;-65
2023/12/01 05:07:51;;;;;;;0.35;0.35;;;-0.20;99.90;;;;;;5044055;28;20124;-65
2023/12/01 05:10:21;;;;;;;0.70;0.70;;;-0.20;99.90;;;;;;5035380;28;20049;-65
2023/12/01 05:12:51;;;;;;;1.17;1.17;;;-0.20;99.90;;;;;;5040383;28;20716;-65
2023/12/01 05:15:22;;;;;;;0.40;0.40;;;-0.30;99.90;;;;;;5034480;28;20048;-65
2023/12/01 05:17:49;;;;;;;0.10;0.10;;;-0.30;99.90;;;;;;5048268;28;20170;-65
2023/12/01 05:20:15;;;;;;;2.42;1.20;;;-0.40;99.90;;;;;;5047714;28;20052;-65
2023/12/01 05:22:52;;;;;;;4.55;1.75;;;-0.30;99.90;;;;;;5037259;28;20045;-65
2023/12/01 05:25:19;;;;;;;0.10;0.10;;;-0.40;99.90;;;;;;5034890;28;20408;-65
2023/12/01 05:27:47;;;;;;;0.20;0.20;;;-0.50;99.90;;;;;;5036003;28;20037;-65
2023/12/01 05:30:14;;;;;;;0.20;0.20;;;-0.50;99.90;;;;;;5040937;28;20435;-65
2023/12/01 05:32:42;;;;;;;0.20;0.20;;;-0.50;99.90;;;;;;5046760;28;20041;-65
2023/12/01 05:35:11;;;;;;;0.90;0.90;;;-0.50;99.90;;;;;;5042460;28;20051;-65
2023/12/01 05:37:48;;;;;;;0.47;0.47;;;-0.50;99.90;;;;;;5041887;28;20037;-65
2023/12/01 05:40:15;;;;;;;4.20;0.98;;;-0.60;99.90;;;;;;5039919;28;20048;-65
2023/12/01 05:42:42;;;;;;;0.10;0.10;;;-0.50;99.90;;;;;;5040144;28;20048;-65
2023/12/01 05:45:12;;;;;;;0.95;0.95;;;-0.50;99.90;;;;;;5045982;28;20067;-65
2023/12/01 05:47:42;;;;;;;0.28;0.28;;;-0.50;99.90;;;;;;5037101;28;20048;-65
2023/12/01 05:50:21;;;;;;;0.20;0.20;;;-0.60;99.90;;;;;;5039527;28;20041;-65
2023/12/01 05:52:48;;;;;;;1.80;1.65;;;-0.70;99.90;;;;;;5037638;28;20045;-65
2023/12/01 05:55:15;;;;;;;1.75;1.05;;;-0.70;99.90;;;;;;5042659;28;20120;-64
2023/12/01 05:57:49;;;;;;;0.10;0.10;;;-0.80;99.90;;;;;;5063324;28;20099;-65
2023/12/01 06:00:17;;;;;;;0.38;0.38;;;-0.80;99.90;;;;;;5047061;28;20041;-65
2023/12/01 06:02:46;;;;;;;0.20;0.20;;;-0.90;99.90;;;;;;5036255;28;20138;-65
2023/12/01 06:05:14;;;;;;;0.50;0.50;;;-0.90;99.90;;;;;;5044103;28;20469;-65
2023/12/01 06:07:49;;;;;;;0.35;0.35;;;-0.80;99.90;;;;;;5040766;28;20131;-64
2023/12/01 06:10:16;;;;;;;0.15;0.15;;;-0.80;99.90;;;;;;5037991;28;20445;-65
2023/12/01 06:12:42;;;;;;;0.10;0.10;;;-0.80;99.90;;;;;;5042242;28;20091;-65
2023/12/01 06:15:13;;;;;;;0.20;0.20;;;-0.80;99.90;;;;;;5036911;28;20045;-65
2023/12/01 06:17:43;;;;;;;0.35;0.35;;;-0.90;99.90;;;;;;5039576;28;20449;-65
2023/12/01 06:20:19;;;;;;;0.43;0.43;;;-0.90;99.90;;;;;;5034385;28;20124;-65
2023/12/01 06:22:58;;;;;;;0.73;0.73;;;-1.00;99.90;;;;;;5036089;28;20045;-64
2023/12/01 06:25:28;;;;;;;0.60;0.60;;;-0.90;99.90;;;;;;5041358;28;20111;-65
2023/12/01 06:28:01;;;;;;;0.10;0.10;;;-1.00;99.90;;;;;;5055081;28;20098;-64
2023/12/01 06:30:29;;;;;;;0.20;0.20;;;-1.00;99.90;;;;;;5037740;28;20049;-65
2023/12/01 06:32:55;;;;;;;0.40;0.40;;;-0.90;99.90;;;;;;5040722;28;20072;-65
2023/12/01 06:35:21;;;;;;;0.20;0.20;;;-0.90;99.90;;;;;;5034529;28;20056;-65
2023/12/01 06:37:48;;;;;;;0.20;0.20;;;-1.00;99.90;;;;;;5033867;28;20056;-65
2023/12/01 06:40:15;;;;;;;0.38;0.38;;;-0.90;99.90;;;;;;5041613;28;20091;-65
2023/12/01 06:42:43;;;;;;;0.20;0.20;;;-0.80;99.90;;;;;;5055047;28;20532;-64
2023/12/01 06:45:10;;;;;;;1.38;1.27;;;-0.90;99.90;;;;;;5038216;28;20575;-65
2023/12/01 06:47:37;;;;;;;6.40;2.47;;;-0.90;99.90;;;;;;5036974;28;20087;-65
2023/12/01 06:50:03;;;;;;;0.80;0.80;;;-0.90;99.90;;;;;;5036538;28;20049;-65
2023/12/01 06:52:28;;;;;;;0.25;0.25;;;-0.90;99.90;;;;;;5035745;28;20041;-65
2023/12/01 06:54:54;;;;;;;0.85;0.85;;;-0.90;99.90;;;;;;5040601;28;20507;-65
2023/12/01 06:57:20;;;;;;;1.70;1.60;;;-0.90;99.90;;;;;;5040127;28;20140;-65
2023/12/01 06:59:45;;;;;;;0.45;0.45;;;-0.90;99.90;;;;;;5036155;28;20067;-65
2023/12/01 07:02:11;;;;;;;0.55;0.55;;;-0.90;99.90;;;;;;5036852;28;20092;-64
2023/12/01 07:04:37;;;;;;;0.85;0.85;;;-0.80;99.90;;;;;;5044107;28;20049;-65
2023/12/01 07:07:03;;;;;;;0.75;0.75;;;-0.90;99.90;;;;;;5044143;28;20056;-65
2023/12/01 07:09:29;;;;;;;0.82;0.82;;;-0.90;99.90;;;;;;5038906;28;20045;-65
2023/12/01 07:11:54;;;;;;;0.15;0.15;;;-0.90;99.90;;;;;;5042799;28;20223;-65
2023/12/01 07:14:23;;;;;;;0.35;0.35;;;-1.00;99.90;;;;;;5044282;28;20131;-64
2023/12/01 07:16:49;;;;;;;0.43;0.43;;;-0.90;99.90;;;;;;5030197;28;20052;-64
2023/12/01 07:19:16;;;;;;;0.20;0.20;;;-1.00;99.90;;;;;;5045437;28;20075;-65
2023/12/01 07:21:45;;;;;;;0.90;0.90;;;-0.90;99.90;;;;;;5046316;28;20615;-64
2023/12/01 07:24:10;;;;;;;0.88;0.88;;;-0.90;99.90;;;;;;5041467;28;20090;-64
2023/12/01 07:26:36;;;;;;;0.40;0.40;;;-0.90;99.90;;;;;;5041983;28;20519;-64
2023/12/01 07:29:04;;;;;;;0.30;0.30;;;-0.90;99.90;;;;;;5041344;28;20052;-64
2023/12/01 07:31:31;;;;;;;0.32;0.32;;;-0.90;99.90;;;;;;5033912;28;20087;-65
2023/12/01 07:33:57;;;;;;;1.02;0.95;;;-0.80;99.90;;;;;;5039922;28;20045;-64
2023/12/01 07:36:22;;;;;;;0.47;0.47;;;-0.80;99.90;;;;;;5037810;28;20400;-64
2023/12/01 07:38:48;;;;;;;4.05;2.40;;;-0.80;99.90;;;;;;5047093;28;20447;-64
2023/12/01 07:41:13;;;;;;;0.57;0.57;;;-0.80;99.90;;;;;;5039200;28;20044;-64
2023/12/01 07:43:42;;;;;;;0.20;0.20;;;-1.00;99.90;;;;;;5045334;28;20055;-64
2023/12/01 07:46:08;;;;;;;0.25;0.25;;;-1.00;99.90;;;;;;5044611;28;20745;-64
2023/12/01 07:48:37;;;;;;;0.40;0.40;;;-0.90;99.90;;;;;;5038907;28;20069;-64
2023/12/01 07:51:03;;;;;;;0.20;0.20;;;-0.90;99.90;;;;;;5043656;28;20037;-64
2023/12/01 07:53:28;;;;;;;0.93;0.93;;;-0.90;99.90;;;;;;5049071;28;20091;-64
2023/12/01 07:55:54;;;;;;;1.85;1.25;;;-0.80;99.90;;;;;;5041574;28;20052;-64
2023/12/01 07:58:20;;;;;;;0.55;0.55;;;-0.90;99.90;;;;;;5046514;28;20052;-64
2023/12/01 08:00:46;;;;;;;1.33;1.30;;;-0.80;99.90;;;;;;5046835;28;20150;-65
2023/12/01 08:03:12;;;;;;;1.30;1.20;;;-0.90;99.90;;;;;;5037751;28;20500;-64
2023/12/01 08:05:39;;;;;;;1.48;0.65;;;-0.90;99.90;;;;;;5044508;28;20120;-64
2023/12/01 08:08:05;;;;;;;0.20;0.20;;;-0.90;99.90;;;;;;5043676;28;20170;-64
2023/12/01 08:10:30;;;;;;;1.15;1.15;;;-0.90;99.90;;;;;;5044083;28;20052;-65
2023/12/01 08:12:56;;;;;;;1.10;1.05;;;-0.90;99.90;;;;;;5037182;28;20041;-65
2023/12/01 08:15:22;;;;;;;0.40;0.40;;;-0.80;99.90;;;;;;5041796;28;20091;-64
2023/12/01 08:17:49;;;;;;;0.60;0.60;;;-0.80;99.90;;;;;;5035006;28;20132;-65
2023/12/01 08:20:16;;;;;;;0.45;0.45;;;-0.80;99.90;;;;;;5043786;28;20044;-65
2023/12/01 08:22:43;;;;;;;0.30;0.30;;;-0.80;99.90;;;;;;5035850;28;20037;-65
2023/12/01 08:25:09;;;;;;;0.50;0.50;;;-0.80;99.90;;;;;;5035796;28;20690;-65
2023/12/01 08:27:35;;;;;;;0.20;0.20;;;-0.80;99.90;;;;;;5039178;28;20154;-65
2023/12/01 08:30:02;;;;;;;0.10;0.10;;;-0.70;99.90;;;;;;5038042;28;20665;-66
2023/12/01 08:32:28;;;;;;;0.95;0.88;;;-0.70;99.90;;;;;;5045063;28;20037;-64
2023/12/01 08:34:54;;;;;;;0.32;0.32;;;-0.60;99.90;;;;;;5033919;28;20088;-65
2023/12/01 08:37:20;;;;;;;1.73;1.65;;;-0.50;99.90;;;;;;5034066;28;20076;-64
2023/12/01 08:39:46;;;;;;;0.85;0.85;;;-0.50;99.90;;;;;;5041187;28;20862;-65
2023/12/01 08:42:12;;;;;;;1.10;1.10;;;-0.40;99.90;;;;;;5044697;28;20045;-65
2023/12/01 08:44:37;;;;;;;1.02;1.02;;;-0.40;99.90;;;;;;5037213;28;20076;-65
2023/12/01 08:47:04;;;;;;;11.98;1.65;;;-0.40;99.90;;;;;;5040515;28;20041;-65
2023/12/01 08:49:30;;;;;;;0.20;0.20;;;-0.40;99.90;;;;;;5041375;28;20040;-65
2023/12/01 08:51:56;;;;;;;2.30;1.20;;;-0.40;99.90;;;;;;5042581;28;20052;-65
2023/12/01 08:54:22;;;;;;;0.40;0.40;;;-0.40;99.90;;;;;;5040921;28;20458;-65
2023/12/01 08:56:48;;;;;;;0.20;0.20;;;-0.40;99.90;;;;;;5038384;28;20055;-65
2023/12/01 08:59:14;;;;;;;0.82;0.82;;;-0.40;99.90;;;;;;5035834;28;20473;-64
2023/12/01 09:01:40;;;;;;;3.45;3.25;;;-0.40;99.90;;;;;;5041342;28;20167;-64
2023/12/01 09:04:07;;;;;;;1.98;1.17;;;-0.40;99.90;;;;;;5045157;28;20056;-65
2023/12/01 09:06:33;;;;;;;0.60;0.60;;;-0.40;99.90;;;;;;5043733;28;20137;-64
2023/12/01 09:08:59;;;;;;;0.20;0.20;;;-0.40;99.90;;;;;;5034430;28;20040;-65
2023/12/01 09:11:25;;;;;;;0.32;0.32;;;-0.40;99.90;;;;;;5045524;28;20045;-65
2023/12/01 09:13:51;;;;;;;0.55;0.55;;;-0.40;99.90;;;;;;5046878;28;20060;-64
2023/12/01 09:16:17;;;;;;;1.65;0.80;;;-0.30;99.90;;;;;;5033317;28;20049;-64
2023/12/01 09:18:43;;;;;;;4.13;1.30;;;-0.30;99.90;;;;;;5041835;28;20059;-65
2023/12/01 09:21:08;;;;;;;2.53;1.30;;;-0.30;99.90;;;;;;5036954;28;20507;-65
2023/12/01 09:23:39;;;;;;;0.57;0.57;;;-0.30;99.90;;;;;;5047827;28;20067;-65
2023/12/01 09:26:06;;;;;;;0.68;0.68;;;-0.30;99.90;;;;;;5056660;28;20051;-65
2023/12/01 09:28:35;;;;;;;0.38;0.38;;;-0.30;99.90;;;;;;5061536;28;20201;-65
2023/12/01 09:31:04;;;;;;;0.15;0.15;;;-0.20;99.90;;;;;;5039707;28;20507;-65
2023/12/01 09:33:32;;;;;;;0.20;0.20;;;-0.20;99.90;;;;;;5060740;28;20041;-65
2023/12/01 09:35:58;;;;;;;0.68;0.68;;;-0.20;99.90;;;;;;5046059;28;20106;-64
2023/12/01 09:38:24;;;;;;;0.20;0.20;;;-0.20;99.90;;;;;;5037149;28;20041;-65
2023/12/01 09:40:50;;;;;;;0.20;0.20;;;-0.10;99.90;;;;;;5041938;28;20040;-65
2023/12/01 09:43:19;;;;;;;1.55;1.45;;;-0.10;99.90;;;;;;5046040;28;20052;-65
2023/12/01 09:45:45;;;;;;;0.25;0.25;;;-0.10;99.90;;;;;;5051761;28;20040;-65
2023/12/01 09:48:13;;;;;;;0.20;0.20;;;-0.10;99.90;;;;;;5043386;28;20094;-65
2023/12/01 09:50:39;;;;;;;1.27;1.27;;;0.00;99.90;;;;;;5039175;28;20053;-65
2023/12/01 09:53:05;;;;;;;2.58;2.38;;;0.00;99.90;;;;;;5047110;28;20430;-65
2023/12/01 09:55:33;;;;;;;0.20;0.20;;;0.00;99.90;;;;;;5045823;28;20041;-65
2023/12/01 09:57:59;;;;;;;1.08;1.08;;;0.10;99.90;;;;;;5034706;28;20571;-65
2023/12/01 10:00:25;;;;;;;0.57;0.57;;;0.10;99.90;;;;;;5045388;28;20049;-65
2023/12/01 10:02:51;;;;;;;1.85;1.17;;;0.10;99.90;;;;;;5036064;28;20080;-64
2023/12/01 10:05:20;;;;;;;1.77;0.65;;;0.20;99.90;;;;;;5044521;28;20068;-65
2023/12/01 10:07:48;;;;;;;0.35;0.35;;;0.20;99.90;;;;;;5046746;28;20515;-65
2023/12/01 10:10:25;;;;;;;0.10;0.10;;;0.30;99.90;;;;;;5050080;28;20095;-66
2023/12/01 10:12:58;;;;;;;0.63;0.63;;;0.40;99.90;;;;;;5059216;28;20106;-66
2023/12/01 10:15:24;;;;;;;0.50;0.50;;;0.40;99.90;;;;;;5051810;28;20111;-65
2023/12/01 10:17:51;;;;;;;0.80;0.80;;;0.50;99.90;;;;;;5039751;28;20607;-65
2023/12/01 10:20:21;;;;;;;0.20;0.20;;;0.50;99.90;;;;;;5042420;28;20049;-64
2023/12/01 10:22:50;;;;;;;0.32;0.32;;;0.60;99.90;;;;;;5042239;28;20563;-64
2023/12/01 10:25:15;;;;;;;6.65;1.35;;;0.60;99.90;;;;;;5044427;28;20040;-64
2023/12/01 10:27:41;;;;;;;0.40;0.40;;;0.60;99.90;;;;;;5051956;28;20127;-65
2023/12/01 10:30:12;;;;;;;1.08;1.08;;;0.70;99.90;;;;;;5042249;28;20044;-65
2023/12/01 10:32:38;;;;;;;0.50;0.50;;;0.80;99.90;;;;;;5044217;28;20099;-64
2023/12/01 10:35:05;;;;;;;4.05;1.33;;;0.80;99.90;;;;;;5038539;28;20080;-64
2023/12/01 10:37:30;;;;;;;0.28;0.28;;;0.80;99.90;;;;;;5045671;28;20407;-64
2023/12/01 10:39:57;;;;;;;0.40;0.40;;;0.80;99.90;;;;;;5045422;28;20049;-64
2023/12/01 10:42:29;;;;;;;1.73;1.55;;;0.80;99.90;;;;;;5037650;28;20045;-64
2023/12/01 10:44:58;;;;;;;1.20;1.20;;;0.90;99.90;;;;;;5039101;28;20526;-64
2023/12/01 10:47:25;;;;;;;2.40;2.22;;;0.90;99.90;;;;;;5037439;28;20040;-63
2023/12/01 10:49:54;;;;;;;0.30;0.30;;;0.90;99.90;;;;;;5041584;28;20048;-64
2023/12/01 10:52:20;;;;;;;9.52;4.10;;;1.00;99.90;;;;;;5043292;28;20057;-64
2023/12/01 10:54:47;;;;;;;0.10;0.10;;;0.90;99.90;;;;;;5042275;28;20036;-64
2023/12/01 10:57:35;;;;;;;0.40;0.38;;;0.90;99.90;;;;;;5040103;28;20069;-64
2023/12/01 11:00:09;;;;;;;0.10;0.10;;;1.10;99.90;;;;;;5043293;28;20059;-65
2023/12/01 11:02:38;;;;;;;0.32;0.32;;;1.00;99.90;;;;;;5040448;28;20084;-64
2023/12/01 11:05:07;;;;;;;0.30;0.30;;;0.90;99.90;;;;;;5043726;28;20082;-64
2023/12/01 11:07:55;;;;;;;2.38;2.17;;;1.00;99.90;;;;;;5044984;28;20443;-65
2023/12/01 11:10:44;;;;;;;0.28;0.28;;;0.90;99.90;;;;;;5056875;28;20135;-65
2023/12/01 11:13:39;;;;;;;0.10;0.10;;;0.90;99.90;;;;;;5043749;28;20481;-65
2023/12/01 11:16:07;;;;;;;0.75;0.75;;;0.90;99.90;;;;;;5052455;28;20140;-65
2023/12/01 11:18:32;;;;;;;0.22;0.22;;;0.90;99.90;;;;;;5049307;28;20068;-64
2023/12/01 11:20:58;;;;;;;0.10;0.10;;;0.90;99.90;;;;;;5043182;28;20112;-64
2023/12/01 11:23:25;;;;;;;3.20;1.13;;;0.90;99.90;;;;;;5051566;28;20049;-64
2023/12/01 11:26:05;;;;;;;2.05;1.85;;;1.00;99.90;;;;;;5045574;28;20562;-65
2023/12/01 11:31:25;;;;;;;0.20;0.20;;;1.00;99.90;;;;;;5049255;28;20048;-64
2023/12/01 11:33:58;;;;;;;2.28;1.95;;;1.20;99.90;;;;;;5050689;28;20057;-65
2023/12/01 11:36:32;;;;;;;0.10;0.10;;;1.30;99.90;;;;;;5040113;28;20404;-65
2023/12/01 11:41:41;;;;;;;0.43;0.43;;;1.50;99.90;;;;;;5041018;28;20388;-65
2023/12/01 11:44:23;;;;;;;0.20;0.20;;;1.60;99.90;;;;;;5045530;28;20045;-65
2023/12/01 11:46:57;;;;;;;0.15;0.15;;;1.80;99.90;;;;;;5048723;28;20130;-64
2023/12/01 11:49:36;;;;;;;0.20;0.20;;;1.90;99.90;;;;;;5042605;28;20029;-64
2023/12/01 11:52:04;;;;;;;2.08;1.67;;;2.10;99.90;;;;;;5046392;28;20067;-64
2023/12/01 11:54:35;;;;;;;0.70;0.70;;;2.10;99.90;;;;;;5049640;28;20501;-65
2023/12/01 11:57:05;;;;;;;1.00;1.00;;;2.20;99.90;;;;;;5045060;28;20058;-65
2023/12/01 11:59:30;;;;;;;0.68;0.68;;;2.40;99.90;;;;;;5044815;28;20408;-65
2023/12/01 12:01:56;;;;;;;3.55;3.20;;;2.50;99.90;;;;;;5045625;28;20071;-66
2023/12/01 12:04:23;;;;;;;0.20;0.20;;;2.60;99.90;;;;;;5040296;28;20131;-66
2023/12/01 12:06:49;;;;;;;1.05;0.98;;;2.70;99.90;;;;;;5036338;28;20049;-65
2023/12/01 12:09:18;;;;;;;0.57;0.57;;;2.80;99.90;;;;;;5048848;28;20052;-65
2023/12/01 12:11:45;;;;;;;0.20;0.20;;;2.90;99.90;;;;;;5058284;28;20051;-65
2023/12/01 12:14:12;;;;;;;0.75;0.75;;;3.00;99.90;;;;;;5041194;28;20399;-65
2023/12/01 12:16:38;;;;;;;0.95;0.95;;;2.90;99.90;;;;;;5048483;28;20046;-66
2023/12/01 12:19:03;;;;;;;0.25;0.25;;;3.00;99.90;;;;;;5041536;28;20069;-66
2023/12/01 12:21:30;;;;;;;1.77;1.10;;;3.00;99.90;;;;;;5039765;28;20122;-65
2023/12/01 12:23:57;;;;;;;0.80;0.80;;;2.80;99.90;;;;;;5043848;28;20045;-65
2023/12/01 12:26:24;;;;;;;1.63;1.45;;;2.80;99.90;;;;;;5046971;28;20116;-65
2023/12/01 12:29:00;;;;;;;0.40;0.40;;;2.80;99.90;;;;;;5038230;28;20048;-65
2023/12/01 12:31:30;;;;;;;0.10;0.10;;;2.70;99.90;;;;;;5039622;28;20468;-65
2023/12/01 12:33:56;;;;;;;3.45;1.48;;;2.70;99.90;;;;;;5037649;28;20163;-66
2023/12/01 12:36:26;;;;;;;1.23;1.23;;;2.70;99.90;;;;;;5045323;28;20639;-66
2023/12/01 12:38:52;;;;;;;0.10;0.10;;;2.80;99.90;;;;;;5047028;28;20044;-66
2023/12/01 12:41:39;;;;;;;0.20;0.20;;;2.80;99.90;;;;;;5038696;28;20041;-66
2023/12/01 12:44:06;;;;;;;1.27;1.17;;;2.90;99.90;;;;;;5045458;28;20404;-66
2023/12/01 12:46:34;;;;;;;0.10;0.10;;;3.00;99.90;;;;;;5032165;28;20395;-66
2023/12/01 12:49:02;;;;;;;0.17;0.17;;;3.10;99.90;;;;;;5041553;28;20127;-65
2023/12/01 12:51:29;;;;;;;0.35;0.35;;;3.20;99.90;;;;;;5037727;28;20060;-65
2023/12/01 12:53:56;;;;;;;2.05;1.65;;;3.40;99.90;;;;;;5044264;28;20519;-66
2023/12/01 12:56:23;;;;;;;0.22;0.22;;;3.70;99.90;;;;;;5043920;28;20052;-64
2023/12/01 12:58:57;;;;;;;0.63;0.50;;;3.70;99.90;;;;;;5040258;28;20048;-66
2023/12/01 13:01:25;;;;;;;0.10;0.10;;;4.20;99.90;;;;;;5044276;28;20281;-66